createdAt,value
2022-07-26T00:00:25.241Z,10.70
2022-07-26T00:02:27.533Z,9.43
2022-07-26T00:04:29.686Z,9.13
2022-07-26T00:06:31.781Z,9.97
2022-07-26T00:08:34.160Z,9.50
2022-07-26T00:10:44.606Z,11.27
2022-07-26T00:12:46.702Z,10.33
2022-07-26T00:14:48.809Z,10.10
2022-07-26T00:16:51.100Z,9.07
2022-07-26T00:18:53.255Z,9.13
2022-07-26T00:20:55.643Z,10.47
2022-07-26T00:22:57.758Z,10.53
2022-07-26T00:25:00.043Z,10.83
2022-07-26T00:27:02.158Z,11.30
2022-07-26T00:29:06.101Z,10.50
2022-07-26T00:31:09.236Z,10.17
2022-07-26T00:33:11.744Z,11.37
2022-07-26T00:35:14.119Z,11.53
2022-07-26T00:37:20.367Z,11.33
2022-07-26T00:39:24.493Z,11.67
2022-07-26T00:41:26.757Z,10.80
2022-07-26T00:43:29.072Z,12.00
2022-07-26T00:45:31.365Z,11.17
2022-07-26T00:47:33.937Z,12.07
2022-07-26T00:49:36.237Z,11.77
2022-07-26T00:51:38.633Z,10.87
2022-07-26T00:53:40.879Z,11.63
2022-07-26T00:55:43.023Z,11.70
2022-07-26T00:57:45.755Z,12.10
2022-07-26T00:59:48.105Z,11.53
2022-07-26T01:01:50.442Z,12.70
2022-07-26T01:03:53.976Z,10.57
2022-07-26T01:05:56.131Z,12.50
2022-07-26T01:07:58.865Z,12.23
2022-07-26T01:10:03.154Z,11.83
2022-07-26T01:12:05.569Z,11.40
2022-07-26T01:14:07.965Z,11.83
2022-07-26T01:16:10.388Z,12.57
2022-07-26T01:18:12.584Z,10.53
2022-07-26T01:20:15.133Z,11.43
2022-07-26T01:22:17.332Z,12.97
2022-07-26T01:24:19.592Z,11.33
2022-07-26T01:26:21.869Z,12.60
2022-07-26T01:28:27.957Z,13.30
2022-07-26T01:30:30.071Z,12.73
2022-07-26T01:32:32.205Z,13.20
2022-07-26T01:34:34.452Z,12.10
2022-07-26T01:36:36.676Z,13.63
2022-07-26T01:38:42.099Z,13.30
2022-07-26T01:40:44.329Z,13.07
2022-07-26T01:42:46.533Z,13.67
2022-07-26T01:44:49.414Z,13.03
2022-07-26T01:46:51.646Z,13.93
2022-07-26T01:48:53.901Z,13.90
2022-07-26T01:50:56.133Z,14.70
2022-07-26T01:52:58.279Z,15.83
2022-07-26T01:55:00.364Z,16.07
2022-07-26T01:57:02.628Z,16.00
2022-07-26T01:59:04.902Z,16.73
2022-07-26T02:01:07.796Z,15.47
2022-07-26T02:03:10.161Z,15.60
2022-07-26T02:05:12.696Z,14.77
2022-07-26T02:07:14.816Z,14.90
2022-07-26T02:09:16.993Z,15.53
2022-07-26T02:11:19.341Z,15.90
2022-07-26T02:13:21.496Z,17.10
2022-07-26T02:15:23.626Z,17.00
2022-07-26T02:17:25.819Z,15.73
2022-07-26T02:19:29.017Z,16.17
2022-07-26T02:21:31.102Z,17.67
2022-07-26T02:23:33.963Z,17.30
2022-07-26T02:25:36.027Z,15.50
2022-07-26T02:27:38.140Z,17.10
2022-07-26T02:29:40.425Z,15.93
2022-07-26T02:31:42.719Z,18.23
2022-07-26T02:33:50.777Z,17.00
2022-07-26T02:35:52.905Z,15.97
2022-07-26T02:37:54.969Z,16.70
2022-07-26T02:39:57.313Z,16.50
2022-07-26T02:42:01.673Z,17.70
2022-07-26T02:44:04.119Z,16.63
2022-07-26T02:46:06.560Z,18.50
2022-07-26T02:48:08.867Z,17.07
2022-07-26T02:50:11.062Z,19.17
2022-07-26T02:52:13.271Z,18.83
2022-07-26T02:54:15.456Z,16.27
2022-07-26T02:56:17.625Z,16.10
2022-07-26T02:58:25.024Z,15.10
2022-07-26T03:00:27.405Z,13.43
2022-07-26T03:02:29.573Z,14.10
2022-07-26T03:04:31.699Z,13.77
2022-07-26T03:06:33.879Z,13.90
2022-07-26T03:08:35.990Z,13.47
2022-07-26T03:10:39.065Z,12.80
2022-07-26T03:12:41.681Z,12.27
2022-07-26T03:14:43.834Z,11.03
2022-07-26T03:16:45.941Z,12.90
2022-07-26T03:18:48.248Z,12.23
2022-07-26T03:20:50.445Z,13.20
2022-07-26T03:22:52.618Z,13.00
2022-07-26T03:24:54.714Z,13.10
2022-07-26T03:26:57.157Z,12.80
2022-07-26T03:28:59.350Z,12.27
2022-07-26T03:31:01.678Z,12.50
2022-07-26T03:33:04.563Z,12.87
2022-07-26T03:35:07.422Z,13.13
2022-07-26T03:37:09.578Z,11.90
2022-07-26T03:39:11.724Z,11.60
2022-07-26T03:41:13.947Z,13.10
2022-07-26T03:43:17.355Z,13.00
2022-07-26T03:45:22.655Z,11.37
2022-07-26T03:47:24.959Z,11.70
2022-07-26T03:49:27.722Z,12.07
2022-07-26T03:51:29.996Z,12.20
2022-07-26T03:53:32.163Z,12.60
2022-07-26T03:55:52.680Z,11.50
2022-07-26T03:57:54.877Z,12.37
2022-07-26T03:59:57.014Z,11.17
2022-07-26T04:01:59.209Z,11.57
2022-07-26T04:04:01.715Z,11.37
2022-07-26T04:06:03.987Z,9.73
2022-07-26T04:08:06.208Z,10.43
2022-07-26T04:10:08.872Z,10.53
2022-07-26T04:12:11.044Z,10.63
2022-07-26T04:14:13.277Z,10.37
2022-07-26T04:16:15.468Z,10.57
2022-07-26T04:18:17.850Z,9.97
2022-07-26T04:20:20.013Z,10.40
2022-07-26T04:22:22.198Z,9.80
2022-07-26T04:24:25.291Z,9.10
2022-07-26T04:26:29.588Z,9.60
2022-07-26T04:28:32.019Z,9.63
2022-07-26T04:30:34.138Z,9.60
2022-07-26T04:32:36.317Z,9.90
2022-07-26T04:34:38.347Z,9.23
2022-07-26T04:36:40.421Z,8.40
2022-07-26T04:38:42.560Z,8.67
2022-07-26T04:40:44.798Z,8.87
2022-07-26T04:42:47.465Z,9.03
2022-07-26T04:44:49.490Z,8.90
2022-07-26T04:46:51.624Z,8.60
2022-07-26T04:48:53.810Z,8.83
2022-07-26T04:50:56.025Z,8.20
2022-07-26T04:52:58.516Z,7.63
2022-07-26T04:55:00.687Z,7.23
2022-07-26T04:57:02.886Z,7.60
2022-07-26T04:59:04.984Z,7.73
2022-07-26T05:01:11.153Z,8.20
2022-07-26T05:03:13.648Z,6.93
2022-07-26T05:05:16.072Z,7.57
2022-07-26T05:07:19.254Z,8.30
2022-07-26T05:09:21.323Z,7.10
2022-07-26T05:11:23.611Z,6.87
2022-07-26T05:13:29.386Z,7.27
2022-07-26T05:15:35.293Z,7.37
2022-07-26T05:17:39.656Z,7.00
2022-07-26T05:19:44.850Z,6.77
2022-07-26T05:21:49.686Z,6.60
2022-07-26T05:23:51.763Z,6.57
2022-07-26T05:25:53.989Z,6.10
2022-07-26T05:27:56.259Z,6.10
2022-07-26T05:29:58.405Z,6.00
2022-07-26T05:32:00.568Z,5.87
2022-07-26T05:34:03.773Z,5.60
2022-07-26T05:36:06.225Z,5.13
2022-07-26T05:38:08.359Z,5.83
2022-07-26T05:40:11.320Z,4.30
2022-07-26T05:42:13.470Z,4.50
2022-07-26T05:44:15.748Z,4.73
2022-07-26T05:46:17.912Z,3.93
2022-07-26T05:48:20.131Z,4.17
2022-07-26T05:50:22.495Z,4.30
2022-07-26T05:52:24.593Z,4.20
2022-07-26T05:54:26.705Z,4.57
2022-07-26T05:56:28.861Z,3.67
2022-07-26T05:58:31.034Z,3.87
2022-07-26T06:00:33.556Z,3.57
2022-07-26T06:02:35.731Z,3.77
2022-07-26T06:04:38.488Z,3.73
2022-07-26T06:06:40.655Z,3.40
2022-07-26T06:08:43.128Z,3.27
2022-07-26T06:10:46.056Z,3.53
2022-07-26T06:12:48.165Z,3.00
2022-07-26T06:14:50.324Z,2.60
2022-07-26T06:16:52.827Z,3.23
2022-07-26T06:18:54.959Z,3.63
2022-07-26T06:21:02.155Z,4.20
2022-07-26T06:23:05.197Z,3.10
2022-07-26T06:25:07.667Z,4.00
2022-07-26T06:27:09.812Z,3.90
2022-07-26T06:29:11.889Z,4.53
2022-07-26T06:31:14.142Z,4.40
2022-07-26T06:33:16.300Z,3.73
2022-07-26T06:35:18.395Z,3.90
2022-07-26T06:37:21.400Z,5.07
2022-07-26T06:39:23.629Z,4.57
2022-07-26T06:41:26.295Z,5.40
2022-07-26T06:43:28.875Z,5.20
2022-07-26T06:45:31.365Z,5.23
2022-07-26T06:47:33.953Z,4.97
2022-07-26T06:49:36.407Z,4.17
2022-07-26T06:51:38.939Z,4.07
2022-07-26T06:53:41.808Z,5.10
2022-07-26T06:55:44.025Z,5.00
2022-07-26T06:57:50.275Z,5.30
2022-07-26T06:59:52.879Z,5.07
2022-07-26T07:01:59.266Z,4.90
2022-07-26T07:04:02.565Z,4.30
2022-07-26T07:06:04.790Z,3.90
2022-07-26T07:08:07.286Z,4.60
2022-07-26T07:10:10.152Z,3.70
2022-07-26T07:12:12.286Z,3.87
2022-07-26T07:14:14.440Z,3.80
2022-07-26T07:16:16.658Z,3.13
2022-07-26T07:18:18.788Z,2.50
2022-07-26T07:20:20.939Z,3.37
2022-07-26T07:22:23.099Z,2.83
2022-07-26T07:24:25.266Z,2.43
2022-07-26T07:26:27.546Z,3.20
2022-07-26T07:28:29.992Z,2.67
2022-07-26T07:30:32.368Z,3.10
2022-07-26T07:32:34.828Z,3.20
2022-07-26T07:34:37.333Z,2.83
2022-07-26T07:36:39.432Z,1.97
2022-07-26T07:38:42.829Z,2.37
2022-07-26T07:40:45.189Z,2.20
2022-07-26T07:42:47.305Z,2.07
2022-07-26T07:44:50.299Z,2.37
2022-07-26T07:46:52.711Z,2.00
2022-07-26T07:48:54.947Z,2.20
2022-07-26T07:50:57.042Z,2.90
2022-07-26T07:52:59.442Z,2.20
2022-07-26T07:55:36.663Z,2.07
2022-07-26T07:57:27.000Z,2.33
2022-07-26T07:59:31.604Z,1.90
2022-07-26T08:01:40.296Z,2.90
2022-07-26T08:03:43.116Z,1.90
2022-07-26T08:05:52.403Z,2.23
2022-07-26T08:07:54.477Z,2.30
2022-07-26T08:09:57.249Z,1.73
2022-07-26T08:11:59.354Z,2.00
2022-07-26T08:14:02.690Z,2.20
2022-07-26T08:16:06.442Z,2.00
2022-07-26T08:18:11.812Z,1.90
2022-07-26T08:20:16.460Z,2.40
2022-07-26T08:22:18.710Z,2.17
2022-07-26T08:24:22.501Z,2.00
2022-07-26T08:26:25.074Z,2.10
2022-07-26T08:28:46.799Z,2.20
2022-07-26T08:30:49.808Z,1.97
2022-07-26T08:32:52.037Z,2.47
2022-07-26T08:34:54.640Z,2.37
2022-07-26T08:37:18.000Z,1.93
2022-07-26T08:39:20.362Z,2.27
2022-07-26T08:41:23.281Z,2.57
2022-07-26T08:43:25.677Z,1.97
2022-07-26T08:45:30.566Z,1.97
2022-07-26T08:47:37.902Z,2.03
2022-07-26T08:49:45.809Z,2.23
2022-07-26T08:51:47.924Z,2.00
2022-07-26T08:53:52.043Z,2.03
2022-07-26T08:56:07.043Z,2.20
2022-07-26T08:58:09.753Z,2.40
2022-07-26T09:00:21.142Z,1.70
2022-07-26T09:02:23.345Z,1.70
2022-07-26T09:04:32.764Z,1.83
2022-07-26T09:06:36.105Z,1.63
2022-07-26T09:08:38.258Z,1.70
2022-07-26T09:10:40.394Z,1.87
2022-07-26T09:12:42.992Z,1.80
2022-07-26T09:14:48.521Z,1.90
2022-07-26T09:16:59.470Z,1.93
2022-07-26T09:19:19.117Z,1.70
2022-07-26T09:21:39.035Z,2.80
2022-07-26T09:23:44.126Z,1.50
2022-07-26T09:25:47.181Z,2.30
2022-07-26T09:27:49.406Z,1.67
2022-07-26T09:29:53.467Z,1.87
2022-07-26T09:32:17.321Z,1.97
2022-07-26T09:34:26.264Z,2.27
2022-07-26T09:36:28.601Z,1.67
2022-07-26T09:38:42.056Z,2.13
2022-07-26T09:40:47.335Z,1.57
2022-07-26T09:42:56.573Z,1.40
2022-07-26T09:44:58.747Z,2.00
2022-07-26T09:47:01.045Z,2.07
2022-07-26T09:49:22.186Z,1.50
2022-07-26T09:51:45.885Z,1.53
2022-07-26T09:53:49.252Z,1.60
2022-07-26T09:55:51.365Z,1.77
2022-07-26T09:57:54.175Z,1.47
2022-07-26T09:59:56.956Z,1.70
2022-07-26T10:02:00.217Z,1.70
2022-07-26T10:04:02.473Z,1.93
2022-07-26T10:06:05.067Z,1.83
2022-07-26T10:08:08.243Z,2.40
2022-07-26T10:10:15.698Z,2.10
2022-07-26T10:12:17.993Z,1.97
2022-07-26T10:14:37.079Z,2.10
2022-07-26T10:16:39.178Z,2.30
2022-07-26T10:18:43.018Z,2.50
2022-07-26T10:20:52.486Z,2.00
2022-07-26T10:22:54.670Z,2.47
2022-07-26T10:24:58.887Z,2.40
2022-07-26T10:27:00.935Z,2.20
2022-07-26T10:29:25.804Z,2.20
2022-07-26T10:31:30.474Z,2.20
2022-07-26T10:33:43.592Z,1.90
2022-07-26T10:35:45.960Z,2.47
2022-07-26T10:38:04.956Z,2.33
2022-07-26T10:40:18.286Z,2.43
2022-07-26T10:42:20.554Z,2.70
2022-07-26T10:44:30.277Z,3.20
2022-07-26T10:46:32.649Z,2.50
2022-07-26T10:48:34.820Z,2.13
2022-07-26T10:50:37.042Z,2.43
2022-07-26T10:52:57.898Z,2.23
2022-07-26T10:55:00.106Z,1.90
2022-07-26T10:57:02.341Z,2.47
2022-07-26T10:59:05.252Z,2.40
2022-07-26T11:01:07.613Z,2.47
2022-07-26T11:03:11.268Z,2.53
2022-07-26T11:05:19.115Z,2.50
2022-07-26T11:07:21.277Z,3.13
2022-07-26T11:09:23.633Z,2.50
2022-07-26T11:11:30.538Z,2.70
2022-07-26T11:13:33.895Z,2.37
2022-07-26T11:15:41.567Z,2.60
2022-07-26T11:17:44.032Z,2.60
2022-07-26T11:19:46.201Z,2.87
2022-07-26T11:21:56.704Z,3.30
2022-07-26T11:24:03.623Z,2.73
2022-07-26T11:26:08.811Z,3.77
2022-07-26T11:28:10.914Z,3.10
2022-07-26T11:30:13.554Z,3.33
2022-07-26T11:32:19.094Z,2.83
2022-07-26T11:34:27.425Z,3.03
2022-07-26T11:36:38.167Z,3.07
2022-07-26T11:38:50.641Z,2.73
2022-07-26T11:40:52.704Z,2.60
2022-07-26T11:42:54.842Z,3.00
2022-07-26T11:44:56.971Z,3.77
2022-07-26T11:47:00.143Z,2.70
2022-07-26T11:49:02.813Z,3.10
2022-07-26T11:51:12.347Z,3.30
2022-07-26T11:53:23.399Z,3.20
2022-07-26T11:55:30.329Z,2.93
2022-07-26T11:57:32.898Z,2.73
2022-07-26T11:59:38.039Z,2.93
2022-07-26T12:01:40.633Z,2.90
2022-07-26T12:03:54.041Z,2.27
2022-07-26T12:06:13.926Z,2.73
2022-07-26T12:08:16.063Z,2.70
2022-07-26T12:10:18.215Z,2.80
2022-07-26T12:12:22.594Z,2.50
2022-07-26T12:14:26.147Z,3.00
2022-07-26T12:16:40.546Z,2.63
2022-07-26T12:18:51.116Z,2.57
2022-07-26T12:21:06.667Z,2.83
2022-07-26T12:23:09.573Z,2.60
2022-07-26T12:25:11.703Z,2.20
2022-07-26T12:27:20.548Z,2.67
2022-07-26T12:29:30.011Z,2.43
2022-07-26T12:31:34.311Z,2.63
2022-07-26T12:33:48.265Z,2.20
2022-07-26T12:35:50.451Z,2.77
2022-07-26T12:37:53.827Z,2.60
2022-07-26T12:40:16.219Z,2.67
2022-07-26T12:42:33.583Z,2.47
2022-07-26T12:44:36.818Z,2.60
2022-07-26T12:46:39.059Z,2.50
2022-07-26T12:48:45.558Z,2.60
2022-07-26T12:50:47.721Z,2.23
2022-07-26T12:52:50.497Z,2.67
2022-07-26T12:54:53.447Z,2.00
2022-07-26T12:56:55.490Z,2.23
2022-07-26T12:59:01.990Z,1.70
2022-07-26T13:01:04.345Z,1.60
2022-07-26T13:03:06.495Z,1.70
2022-07-26T13:05:09.700Z,1.87
2022-07-26T13:07:12.067Z,1.80
2022-07-26T13:09:16.782Z,1.80
2022-07-26T13:11:19.161Z,1.77
2022-07-26T13:13:21.336Z,2.07
2022-07-26T13:15:23.558Z,1.83
2022-07-26T13:17:38.761Z,1.40
2022-07-26T13:19:41.373Z,1.60
2022-07-26T13:21:45.805Z,1.83
2022-07-26T13:23:51.299Z,1.83
2022-07-26T13:25:53.440Z,1.70
2022-07-26T13:27:56.702Z,1.93
2022-07-26T13:29:58.837Z,2.03
2022-07-26T13:32:02.460Z,2.00
2022-07-26T13:34:05.282Z,1.83
2022-07-26T13:36:07.695Z,2.10
2022-07-26T13:38:09.928Z,2.00
2022-07-26T13:40:12.296Z,1.90
2022-07-26T13:42:14.628Z,1.70
2022-07-26T13:44:16.719Z,1.80
2022-07-26T13:46:19.000Z,2.03
2022-07-26T13:48:21.288Z,1.93
2022-07-26T13:50:23.492Z,2.23
2022-07-26T13:52:25.613Z,2.30
2022-07-26T13:54:31.145Z,2.07
2022-07-26T13:56:33.297Z,1.90
2022-07-26T13:58:35.955Z,1.97
2022-07-26T14:00:38.201Z,2.00
2022-07-26T14:02:40.365Z,1.77
2022-07-26T14:04:42.693Z,2.13
2022-07-26T14:06:45.164Z,2.10
2022-07-26T14:08:47.369Z,1.80
2022-07-26T14:10:49.967Z,1.83
2022-07-26T14:12:53.442Z,1.80
2022-07-26T14:14:55.500Z,1.33
2022-07-26T14:16:57.623Z,1.90
2022-07-26T14:18:59.955Z,1.60
2022-07-26T14:21:06.249Z,1.43
2022-07-26T14:23:12.399Z,1.70
2022-07-26T14:25:14.936Z,1.60
2022-07-26T14:27:17.037Z,1.60
2022-07-26T14:29:19.186Z,1.67
2022-07-26T14:31:21.487Z,1.57
2022-07-26T14:33:23.757Z,1.73
2022-07-26T14:35:25.949Z,2.17
2022-07-26T14:37:44.402Z,1.80
2022-07-26T14:39:47.496Z,2.07
2022-07-26T14:41:49.604Z,1.50
2022-07-26T14:43:55.490Z,1.47
2022-07-26T14:45:58.058Z,1.60
2022-07-26T14:48:00.243Z,1.83
2022-07-26T14:50:06.559Z,1.90
2022-07-26T14:52:10.797Z,1.53
2022-07-26T14:54:14.471Z,1.60
2022-07-26T14:56:16.811Z,1.50
2022-07-26T14:58:19.208Z,1.70
2022-07-26T15:00:21.602Z,1.63
2022-07-26T15:02:23.934Z,1.50
2022-07-26T15:04:26.214Z,1.70
2022-07-26T15:06:28.307Z,1.60
2022-07-26T15:08:30.425Z,1.60
2022-07-26T15:10:32.768Z,1.43
2022-07-26T15:12:35.013Z,1.50
2022-07-26T15:14:37.339Z,1.60
2022-07-26T15:16:39.421Z,1.63
2022-07-26T15:18:41.605Z,1.60
2022-07-26T15:20:43.921Z,1.70
2022-07-26T15:22:47.447Z,2.60
2022-07-26T15:24:49.642Z,1.93
2022-07-26T15:26:51.815Z,1.57
2022-07-26T15:28:53.938Z,1.90
2022-07-26T15:30:56.085Z,2.70
2022-07-26T15:32:58.963Z,2.83
2022-07-26T15:35:01.223Z,1.67
2022-07-26T15:37:03.508Z,1.57
2022-07-26T15:39:16.558Z,1.80
2022-07-26T15:41:19.957Z,1.60
2022-07-26T15:43:23.898Z,1.60
2022-07-26T15:45:45.655Z,1.30
2022-07-26T15:48:01.002Z,1.90
2022-07-26T15:50:08.656Z,3.90
2022-07-26T15:52:11.549Z,4.23
2022-07-26T15:54:15.914Z,1.60
2022-07-26T15:56:18.108Z,4.47
2022-07-26T15:58:21.249Z,2.40
2022-07-26T16:00:23.385Z,1.50
2022-07-26T16:02:25.541Z,1.30
2022-07-26T16:04:27.737Z,1.93
2022-07-26T16:06:29.901Z,1.33
2022-07-26T16:08:32.081Z,1.50
2022-07-26T16:10:34.213Z,1.50
2022-07-26T16:12:36.369Z,1.73
2022-07-26T16:14:38.464Z,1.60
2022-07-26T16:16:41.048Z,1.33
2022-07-26T16:18:43.238Z,1.20
2022-07-26T16:20:46.761Z,1.57
2022-07-26T16:22:48.907Z,1.40
2022-07-26T16:24:51.083Z,1.30
2022-07-26T16:26:53.268Z,1.30
2022-07-26T16:28:55.554Z,1.50
2022-07-26T16:30:57.754Z,1.13
2022-07-26T16:33:00.766Z,3.30
2022-07-26T16:35:03.483Z,1.10
2022-07-26T16:37:05.860Z,1.30
2022-07-26T16:39:08.830Z,1.03
2022-07-26T16:41:11.181Z,1.20
2022-07-26T16:43:13.614Z,1.03
2022-07-26T16:45:15.870Z,1.10
2022-07-26T16:47:18.152Z,1.30
2022-07-26T16:49:20.470Z,1.13
2022-07-26T16:51:22.733Z,1.10
2022-07-26T16:53:24.851Z,1.00
2022-07-26T16:55:27.123Z,1.23
2022-07-26T16:57:29.243Z,1.40
2022-07-26T16:59:31.420Z,1.13
2022-07-26T17:01:33.594Z,1.23
2022-07-26T17:03:35.699Z,1.43
2022-07-26T17:05:37.896Z,1.10
2022-07-26T17:07:39.974Z,1.17
2022-07-26T17:09:42.113Z,1.10
2022-07-26T17:11:44.619Z,0.93
2022-07-26T17:13:46.741Z,1.20
2022-07-26T17:15:49.164Z,1.20
2022-07-26T17:17:51.363Z,1.20
2022-07-26T17:19:54.225Z,1.20
2022-07-26T17:21:56.458Z,1.30
2022-07-26T17:24:02.624Z,1.10
2022-07-26T17:26:07.827Z,1.20
2022-07-26T17:28:10.290Z,1.10
2022-07-26T17:30:13.236Z,1.40
2022-07-26T17:32:15.425Z,1.20
2022-07-26T17:34:17.536Z,1.20
2022-07-26T17:36:20.007Z,1.10
2022-07-26T17:38:22.125Z,1.10
2022-07-26T17:40:25.902Z,1.10
2022-07-26T17:42:29.157Z,1.13
2022-07-26T17:44:31.319Z,1.20
2022-07-26T17:46:33.942Z,1.00
2022-07-26T17:48:36.256Z,0.93
2022-07-26T17:50:38.971Z,1.00
2022-07-26T17:52:41.876Z,1.00
2022-07-26T17:54:44.076Z,1.10
2022-07-26T17:56:47.176Z,1.00
2022-07-26T17:58:49.204Z,1.50
2022-07-26T18:00:52.061Z,1.10
2022-07-26T18:02:54.364Z,1.40
2022-07-26T18:04:56.628Z,0.97
2022-07-26T18:06:58.852Z,1.10
2022-07-26T18:09:00.952Z,1.00
2022-07-26T18:11:04.911Z,1.10
2022-07-26T18:13:07.029Z,1.33
2022-07-26T18:15:09.726Z,1.10
2022-07-26T18:17:11.922Z,1.20
2022-07-26T18:19:15.154Z,1.30
2022-07-26T18:21:17.362Z,1.27
2022-07-26T18:23:19.569Z,1.27
2022-07-26T18:25:21.729Z,1.30
2022-07-26T18:27:28.343Z,1.20
2022-07-26T18:29:30.965Z,1.20
2022-07-26T18:31:33.667Z,1.20
2022-07-26T18:33:35.856Z,1.30
2022-07-26T18:35:38.471Z,1.10
2022-07-26T18:37:40.773Z,1.10
2022-07-26T18:39:43.073Z,1.23
2022-07-26T18:41:45.502Z,1.20
2022-07-26T18:43:48.348Z,1.20
2022-07-26T18:45:50.498Z,1.27
2022-07-26T18:47:52.850Z,1.10
2022-07-26T18:49:56.075Z,1.30
2022-07-26T18:52:05.868Z,1.10
2022-07-26T18:54:11.046Z,1.53
2022-07-26T18:56:13.513Z,1.20
2022-07-26T18:58:15.977Z,1.13
2022-07-26T19:00:20.725Z,1.80
2022-07-26T19:02:22.866Z,1.60
2022-07-26T19:04:25.206Z,1.20
2022-07-26T19:06:27.359Z,1.30
2022-07-26T19:08:29.498Z,1.27
2022-07-26T19:10:31.733Z,1.10
2022-07-26T19:12:33.971Z,1.37
2022-07-26T19:14:36.128Z,1.20
2022-07-26T19:16:38.368Z,1.13
2022-07-26T19:18:40.492Z,1.40
2022-07-26T19:20:50.724Z,1.40
2022-07-26T19:22:52.918Z,1.47
2022-07-26T19:24:55.043Z,1.47
2022-07-26T19:26:57.190Z,1.57
2022-07-26T19:29:00.461Z,1.60
2022-07-26T19:31:02.762Z,1.33
2022-07-26T19:33:05.069Z,1.27
2022-07-26T19:35:08.160Z,1.13
2022-07-26T19:37:10.459Z,1.53
2022-07-26T19:39:13.073Z,1.40
2022-07-26T19:41:16.104Z,1.60
2022-07-26T19:43:18.368Z,1.33
2022-07-26T19:45:21.111Z,1.53
2022-07-26T19:47:23.839Z,1.60
2022-07-26T19:49:26.189Z,1.90
2022-07-26T19:51:28.436Z,1.33
2022-07-26T19:53:30.602Z,1.50
2022-07-26T19:55:32.874Z,1.57
2022-07-26T19:57:35.308Z,1.67
2022-07-26T19:59:37.499Z,1.80
2022-07-26T20:01:39.624Z,1.47
2022-07-26T20:03:41.667Z,1.50
2022-07-26T20:05:43.637Z,1.70
2022-07-26T20:07:47.698Z,1.40
2022-07-26T20:09:50.337Z,1.50
2022-07-26T20:11:52.441Z,1.30
2022-07-26T20:13:55.418Z,1.60
2022-07-26T20:15:57.510Z,1.43
2022-07-26T20:17:59.501Z,1.60
2022-07-26T20:20:03.629Z,1.80
2022-07-26T20:22:05.935Z,1.30
2022-07-26T20:24:08.397Z,1.43
2022-07-26T20:26:11.010Z,1.50
2022-07-26T20:28:13.047Z,1.90
2022-07-26T20:30:15.386Z,1.37
2022-07-26T20:32:17.562Z,1.43
2022-07-26T20:34:19.518Z,1.40
2022-07-26T20:36:21.638Z,1.50
2022-07-26T20:38:24.177Z,1.43
2022-07-26T20:40:28.683Z,1.30
2022-07-26T20:42:30.844Z,1.30
2022-07-26T20:44:33.827Z,1.20
2022-07-26T20:46:42.531Z,1.43
2022-07-26T20:48:44.589Z,1.30
2022-07-26T20:50:46.681Z,1.60
2022-07-26T20:52:49.215Z,1.50
2022-07-26T20:54:51.200Z,1.40
2022-07-26T20:56:53.252Z,1.63
2022-07-26T20:58:55.602Z,1.43
2022-07-26T21:00:57.680Z,1.10
2022-07-26T21:02:59.840Z,1.47
2022-07-26T21:05:02.230Z,1.20
2022-07-26T21:07:04.927Z,1.47
2022-07-26T21:09:08.912Z,1.33
2022-07-26T21:11:11.726Z,1.43
2022-07-26T21:13:14.199Z,1.97
2022-07-26T21:15:16.154Z,1.33
2022-07-26T21:17:18.197Z,1.50
2022-07-26T21:19:20.512Z,1.57
2022-07-26T21:21:22.548Z,1.37
2022-07-26T21:23:24.860Z,1.60
2022-07-26T21:25:26.966Z,1.30
2022-07-26T21:27:29.006Z,1.20
2022-07-26T21:29:31.615Z,1.27
2022-07-26T21:31:40.037Z,1.30
2022-07-26T21:33:44.579Z,1.40
2022-07-26T21:35:46.637Z,1.50
2022-07-26T21:37:48.734Z,1.57
2022-07-26T21:39:50.818Z,1.50
2022-07-26T21:41:52.886Z,1.80
2022-07-26T21:43:55.004Z,1.50
2022-07-26T21:45:57.192Z,1.20
2022-07-26T21:47:59.271Z,1.53
2022-07-26T21:50:01.368Z,1.20
2022-07-26T21:52:03.886Z,1.60
2022-07-26T21:54:06.059Z,1.60
2022-07-26T21:56:08.266Z,1.93
2022-07-26T21:58:10.428Z,1.80
2022-07-26T22:00:14.546Z,1.73
2022-07-26T22:02:20.054Z,1.50
2022-07-26T22:04:24.428Z,1.90
2022-07-26T22:06:26.497Z,1.77
2022-07-26T22:08:28.458Z,1.60
2022-07-26T22:10:30.560Z,1.93
2022-07-26T22:12:32.600Z,1.93
2022-07-26T22:14:34.828Z,1.90
2022-07-26T22:16:36.903Z,1.80
2022-07-26T22:18:38.952Z,1.50
2022-07-26T22:20:41.819Z,1.60
2022-07-26T22:22:43.873Z,1.47
2022-07-26T22:24:45.910Z,1.57
2022-07-26T22:26:47.906Z,1.60
2022-07-26T22:28:50.010Z,1.63
2022-07-26T22:30:52.275Z,1.40
2022-07-26T22:32:56.531Z,1.70
2022-07-26T22:34:58.579Z,2.43
2022-07-26T22:37:00.629Z,1.63
2022-07-26T22:39:03.690Z,1.57
2022-07-26T22:41:05.676Z,1.90
2022-07-26T22:43:08.212Z,1.80
2022-07-26T22:45:10.823Z,1.70
2022-07-26T22:47:13.323Z,1.50
2022-07-26T22:49:15.528Z,2.00
2022-07-26T22:51:17.579Z,1.93
2022-07-26T22:53:19.645Z,1.50
2022-07-26T22:55:22.558Z,1.73
2022-07-26T22:57:24.553Z,1.57
2022-07-26T22:59:26.470Z,1.80
2022-07-26T23:01:29.049Z,1.70
2022-07-26T23:03:31.118Z,1.90
2022-07-26T23:05:45.619Z,2.07
2022-07-26T23:07:50.498Z,2.00
2022-07-26T23:09:52.660Z,1.60
2022-07-26T23:11:54.767Z,2.10
2022-07-26T23:13:58.888Z,2.23
2022-07-26T23:16:02.034Z,2.00
2022-07-26T23:18:04.336Z,1.90
2022-07-26T23:20:08.480Z,1.77
2022-07-26T23:22:10.697Z,1.70
2022-07-26T23:24:12.702Z,2.27
2022-07-26T23:26:14.694Z,1.63
2022-07-26T23:28:36.151Z,2.03
2022-07-26T23:30:38.666Z,1.77
2022-07-26T23:32:40.762Z,1.77
2022-07-26T23:34:43.041Z,2.13
2022-07-26T23:36:45.074Z,1.60
2022-07-26T23:38:47.148Z,1.67
2022-07-26T23:40:49.109Z,1.60
2022-07-26T23:42:51.909Z,2.63
2022-07-26T23:44:53.999Z,1.97
2022-07-26T23:46:56.655Z,1.43
2022-07-26T23:48:58.814Z,1.77
2022-07-26T23:51:00.860Z,2.03
2022-07-26T23:53:03.027Z,1.70
2022-07-26T23:55:05.388Z,1.80
2022-07-26T23:57:08.463Z,2.33
2022-07-26T23:59:10.604Z,1.50
